Mohall, North Dakota
Current Conditions -  °F | °C
As of 10:33 PM on Friday 19 Dec 2014 (Local Time) from KMIB Reporting Station
Freezing Drizzle Freezing Drizzle  
Wind Chill: 25°   Ceiling: 200
Heat Index: 25°   Visibility: 1.5mi
Dew Point: 25°   Wind: 2mph
Humidity: 100%   Direction: 210°SSW
Pressure: 29.93"   Gusts: NA
Location:  48.76°N, 101.51°W
Report Text: KMIB 200433Z AUTO 21002KT 1 1/2SM R29/2800FT -FZDZ BR OVC002 M04/M04 A2993 RMK AO2 DZB0358 $
Loading
Personal Weather Stations






























Interactive Weather Map New forecast layout! Learn more

10-Day Weather Forecast

Advertisements
Track Severe Weather on mobile